createdAt,value
2022-09-22T00:01:29.558Z,17.94
2022-09-22T00:04:00.380Z,17.87
2022-09-22T00:06:38.238Z,17.87
2022-09-22T00:09:08.940Z,17.84
2022-09-22T00:11:46.361Z,17.90
2022-09-22T00:14:31.430Z,17.34
2022-09-22T00:17:01.207Z,17.67
2022-09-22T00:19:32.125Z,17.69
2022-09-22T00:21:59.780Z,17.74
2022-09-22T00:24:27.933Z,17.55
2022-09-22T00:26:58.035Z,17.59
2022-09-22T00:29:27.509Z,17.72
2022-09-22T00:31:55.106Z,17.17
2022-09-22T00:34:26.872Z,17.41
2022-09-22T00:36:54.458Z,17.13
2022-09-22T00:39:22.183Z,17.17
2022-09-22T00:41:52.880Z,17.09
2022-09-22T00:44:35.100Z,17.47
2022-09-22T00:47:20.758Z,17.27
2022-09-22T00:49:58.709Z,17.17
2022-09-22T00:52:36.536Z,17.15
2022-09-22T00:55:11.474Z,17.47
2022-09-22T00:57:41.054Z,17.07
2022-09-22T01:00:11.689Z,16.87
2022-09-22T01:02:39.380Z,16.88
2022-09-22T01:05:07.862Z,16.98
2022-09-22T01:07:36.238Z,17.22
2022-09-22T01:10:03.993Z,17.24
2022-09-22T01:12:32.126Z,17.37
2022-09-22T01:15:26.557Z,17.47
2022-09-22T01:18:08.272Z,17.49
2022-09-22T01:20:56.349Z,17.27
2022-09-22T01:23:49.740Z,17.34
2022-09-22T01:26:25.485Z,17.29
2022-09-22T01:29:18.472Z,17.37
2022-09-22T01:32:17.365Z,17.35
2022-09-22T01:35:11.563Z,17.32
2022-09-22T01:38:08.523Z,17.22
2022-09-22T01:40:54.725Z,17.28
2022-09-22T01:43:32.384Z,17.06
2022-09-22T01:46:03.661Z,17.17
2022-09-22T01:48:33.427Z,17.17
2022-09-22T01:51:14.065Z,17.47
2022-09-22T01:53:57.188Z,17.40
2022-09-22T01:56:26.747Z,16.82
2022-09-22T01:59:01.151Z,17.15
2022-09-22T02:01:37.801Z,17.19
2022-09-22T02:04:17.014Z,17.19
2022-09-22T02:06:51.410Z,16.42
2022-09-22T02:09:22.097Z,16.42
2022-09-22T02:11:49.193Z,16.28
2022-09-22T02:14:16.858Z,17.11
2022-09-22T02:16:44.409Z,17.25
2022-09-22T02:19:29.513Z,17.14
2022-09-22T02:21:56.730Z,16.75
2022-09-22T02:24:41.006Z,17.07
2022-09-22T02:27:25.688Z,17.39
2022-09-22T02:30:08.598Z,17.33
2022-09-22T02:32:39.517Z,16.21
2022-09-22T02:35:08.434Z,16.13
2022-09-22T02:38:02.397Z,16.22
2022-09-22T02:40:48.895Z,16.24
2022-09-22T02:43:49.856Z,16.22
2022-09-22T02:46:30.499Z,16.22
2022-09-22T02:49:04.525Z,16.10
2022-09-22T02:51:32.541Z,16.12
2022-09-22T02:53:59.664Z,15.92
2022-09-22T02:56:26.630Z,15.96
2022-09-22T02:58:58.164Z,15.91
2022-09-22T03:01:25.972Z,16.38
2022-09-22T03:03:53.126Z,15.91
2022-09-22T03:06:20.143Z,15.85
2022-09-22T03:08:47.118Z,15.87
2022-09-22T03:11:14.045Z,15.91
2022-09-22T03:13:41.117Z,16.33
2022-09-22T03:16:08.392Z,16.33
2022-09-22T03:18:35.566Z,16.39
2022-09-22T03:21:02.522Z,16.33
2022-09-22T03:23:29.740Z,15.93
2022-09-22T03:25:56.788Z,15.92
2022-09-22T03:28:23.724Z,15.85
2022-09-22T03:30:50.689Z,15.73
2022-09-22T03:33:17.733Z,15.89
2022-09-22T03:35:44.677Z,16.11
2022-09-22T03:38:11.778Z,16.21
2022-09-22T03:40:38.719Z,16.22
2022-09-22T03:43:05.717Z,16.26
2022-09-22T03:45:32.848Z,15.80
2022-09-22T03:48:00.108Z,15.74
2022-09-22T03:50:28.336Z,15.71
2022-09-22T03:52:56.610Z,15.64
2022-09-22T03:55:24.549Z,15.55
2022-09-22T03:57:51.727Z,15.99
2022-09-22T04:00:18.948Z,15.93
2022-09-22T04:02:45.884Z,15.88
2022-09-22T04:05:12.981Z,15.59
2022-09-22T04:07:40.006Z,15.53
2022-09-22T04:10:07.836Z,15.65
2022-09-22T04:12:35.047Z,15.62
2022-09-22T04:15:01.994Z,15.67
2022-09-22T04:17:28.944Z,15.64
2022-09-22T04:19:55.995Z,15.66
2022-09-22T04:22:22.970Z,15.73
2022-09-22T04:24:49.918Z,15.58
2022-09-22T04:27:20.933Z,15.53
2022-09-22T04:29:48.834Z,15.58
2022-09-22T04:32:17.109Z,15.51
2022-09-22T04:34:44.279Z,15.61
2022-09-22T04:37:12.152Z,15.97
2022-09-22T04:39:39.408Z,16.03
2022-09-22T04:42:06.536Z,15.95
2022-09-22T04:44:35.427Z,15.33
2022-09-22T04:47:03.971Z,15.34
2022-09-22T04:49:31.153Z,15.26
2022-09-22T04:51:58.116Z,15.28
2022-09-22T04:54:25.091Z,15.28
2022-09-22T04:56:52.079Z,15.04
2022-09-22T04:59:19.121Z,15.26
2022-09-22T05:01:46.101Z,15.09
2022-09-22T05:04:13.166Z,15.18
2022-09-22T05:06:41.696Z,15.19
2022-09-22T05:09:08.669Z,15.23
2022-09-22T05:11:35.723Z,15.09
2022-09-22T05:14:02.696Z,15.22
2022-09-22T05:16:31.827Z,15.21
2022-09-22T05:18:58.855Z,15.24
2022-09-22T05:21:26.126Z,15.12
2022-09-22T05:23:53.634Z,15.16
2022-09-22T05:26:20.567Z,15.13
2022-09-22T05:28:47.566Z,15.11
2022-09-22T05:31:14.611Z,15.19
2022-09-22T05:33:41.656Z,15.26
2022-09-22T05:36:08.766Z,15.17
2022-09-22T05:38:36.104Z,15.16
2022-09-22T05:41:03.743Z,15.17
2022-09-22T05:43:30.778Z,15.12
2022-09-22T05:45:57.842Z,15.41
2022-09-22T05:48:30.274Z,15.23
2022-09-22T05:50:58.356Z,15.12
2022-09-22T05:53:25.701Z,15.38
2022-09-22T05:55:52.714Z,15.34
2022-09-22T05:58:20.525Z,15.42
2022-09-22T06:00:47.579Z,15.21
2022-09-22T06:03:14.689Z,15.30
2022-09-22T06:05:41.928Z,15.38
2022-09-22T06:08:09.720Z,15.48
2022-09-22T06:10:38.841Z,15.74
2022-09-22T06:13:09.204Z,15.44
2022-09-22T06:15:38.392Z,15.22
2022-09-22T06:18:13.068Z,15.31
2022-09-22T06:20:40.987Z,15.22
2022-09-22T06:23:09.040Z,15.18
2022-09-22T06:25:35.979Z,15.05
2022-09-22T06:28:09.658Z,15.36
2022-09-22T06:30:40.754Z,15.19
2022-09-22T06:33:11.382Z,15.42
2022-09-22T06:35:42.860Z,15.28
2022-09-22T06:38:14.991Z,15.50
2022-09-22T06:40:42.553Z,15.78
2022-09-22T06:43:25.353Z,15.45
2022-09-22T06:45:52.777Z,15.13
2022-09-22T06:48:24.043Z,15.38
2022-09-22T06:50:54.805Z,15.65
2022-09-22T06:53:25.485Z,15.73
2022-09-22T06:55:54.364Z,15.98
2022-09-22T06:58:22.370Z,16.01
2022-09-22T07:00:50.577Z,15.62
2022-09-22T07:03:22.603Z,15.62
2022-09-22T07:06:00.869Z,16.02
2022-09-22T07:08:30.356Z,15.92
2022-09-22T07:11:03.845Z,15.84
2022-09-22T07:13:32.671Z,15.69
2022-09-22T07:16:24.704Z,15.57
2022-09-22T07:18:54.923Z,15.66
2022-09-22T07:21:27.471Z,15.69
2022-09-22T07:23:56.060Z,15.69
2022-09-22T07:26:33.422Z,16.08
2022-09-22T07:29:08.544Z,16.04
2022-09-22T07:31:36.691Z,15.98
2022-09-22T07:34:04.413Z,16.21
2022-09-22T07:36:34.426Z,15.84
2022-09-22T07:39:08.105Z,16.03
2022-09-22T07:41:43.191Z,16.08
2022-09-22T07:44:32.412Z,15.93
2022-09-22T07:47:00.486Z,16.28
2022-09-22T07:49:27.663Z,15.74
2022-09-22T07:51:55.262Z,16.31
2022-09-22T07:54:47.763Z,16.52
2022-09-22T07:57:17.561Z,16.67
2022-09-22T07:59:45.964Z,16.00
2022-09-22T08:02:16.476Z,16.26
2022-09-22T08:04:49.146Z,16.39
2022-09-22T08:07:22.347Z,16.39
2022-09-22T08:09:52.133Z,16.75
2022-09-22T08:12:20.447Z,16.62
2022-09-22T08:14:50.442Z,16.50
2022-09-22T08:17:20.009Z,16.26
2022-09-22T08:19:47.778Z,16.29
2022-09-22T08:22:15.470Z,16.56
2022-09-22T08:24:45.875Z,16.74
2022-09-22T08:27:12.993Z,16.46
2022-09-22T08:29:40.437Z,16.79
2022-09-22T08:32:08.216Z,16.92
2022-09-22T08:34:35.406Z,16.67
2022-09-22T08:37:05.724Z,16.83
2022-09-22T08:39:32.952Z,17.08
2022-09-22T08:42:20.820Z,17.25
2022-09-22T08:44:53.922Z,16.84
2022-09-22T08:47:52.147Z,16.59
2022-09-22T08:50:58.787Z,17.39
2022-09-22T08:53:33.564Z,16.99
2022-09-22T08:56:33.701Z,17.63
2022-09-22T08:59:23.208Z,17.53
2022-09-22T09:02:41.301Z,17.47
2022-09-22T09:05:39.307Z,16.82
2022-09-22T09:08:47.475Z,16.94
2022-09-22T09:12:06.877Z,17.41
2022-09-22T09:15:08.477Z,17.83
2022-09-22T09:17:42.104Z,17.76
2022-09-22T09:20:33.530Z,17.56
2022-09-22T09:23:05.386Z,17.03
2022-09-22T09:25:43.786Z,17.66
2022-09-22T09:28:22.957Z,18.46
2022-09-22T09:30:59.415Z,18.59
2022-09-22T09:33:40.801Z,18.36
2022-09-22T09:36:20.530Z,17.79
2022-09-22T09:39:30.050Z,18.43
2022-09-22T09:42:27.193Z,18.86
2022-09-22T09:45:17.240Z,18.91
2022-09-22T09:48:57.108Z,19.34
2022-09-22T09:55:35.246Z,18.32
2022-09-22T09:58:07.816Z,18.69
2022-09-22T10:00:53.743Z,18.27
2022-09-22T10:03:47.586Z,19.10
2022-09-22T10:06:24.144Z,19.49
2022-09-22T10:08:51.751Z,19.25
2022-09-22T10:11:31.096Z,19.21
2022-09-22T10:13:58.886Z,19.48
2022-09-22T10:16:31.653Z,17.92
2022-09-22T10:18:58.685Z,17.77
2022-09-22T10:21:28.047Z,17.98
2022-09-22T10:23:58.562Z,18.32
2022-09-22T10:26:32.228Z,19.03
2022-09-22T10:29:18.800Z,18.80
2022-09-22T10:32:14.533Z,19.34
2022-09-22T10:34:47.926Z,19.29
2022-09-22T10:37:18.651Z,18.82
2022-09-22T10:39:52.071Z,18.98
2022-09-22T10:42:40.787Z,18.75
2022-09-22T10:45:15.505Z,18.31
2022-09-22T10:47:58.935Z,18.81
2022-09-22T10:50:34.913Z,18.17
2022-09-22T10:53:39.531Z,19.13
2022-09-22T10:56:15.250Z,20.31
2022-09-22T10:59:00.190Z,20.03
2022-09-22T11:02:01.898Z,20.64
2022-09-22T11:04:54.147Z,20.36
2022-09-22T11:07:52.673Z,18.99
2022-09-22T11:10:42.410Z,18.64
2022-09-22T11:13:51.758Z,19.98
2022-09-22T11:17:19.416Z,19.39
2022-09-22T11:20:38.904Z,20.08
2022-09-22T11:23:39.402Z,24.68
2022-09-22T11:26:20.586Z,24.14
2022-09-22T11:29:20.343Z,24.86
2022-09-22T11:32:14.964Z,25.22
2022-09-22T11:35:23.718Z,26.00
2022-09-22T11:38:23.763Z,25.39
2022-09-22T11:41:17.798Z,22.45
2022-09-22T11:44:26.303Z,27.94
2022-09-22T11:47:26.496Z,26.45
2022-09-22T11:50:21.413Z,27.04
2022-09-22T11:53:36.571Z,26.37
2022-09-22T11:56:17.514Z,26.03
2022-09-22T11:58:46.053Z,27.12
2022-09-22T12:01:20.370Z,26.61
2022-09-22T12:03:58.620Z,26.33
2022-09-22T12:06:32.239Z,23.66
2022-09-22T12:09:05.083Z,27.22
2022-09-22T12:11:35.133Z,26.86
2022-09-22T12:14:02.939Z,29.11
2022-09-22T12:16:45.509Z,30.50
2022-09-22T12:19:43.302Z,30.51
2022-09-22T12:22:46.911Z,31.02
2022-09-22T12:25:21.220Z,31.68
2022-09-22T12:28:03.882Z,30.76
2022-09-22T12:30:30.840Z,30.67
2022-09-22T12:32:57.862Z,30.99
2022-09-22T12:35:31.413Z,32.63
2022-09-22T12:38:02.368Z,31.38
2022-09-22T12:40:35.578Z,31.64
2022-09-22T12:43:02.928Z,33.40
2022-09-22T12:45:36.543Z,31.26
2022-09-22T12:48:23.411Z,31.85
2022-09-22T12:50:52.188Z,32.72
2022-09-22T12:53:21.981Z,33.35
2022-09-22T12:55:54.955Z,33.19
2022-09-22T12:58:22.455Z,30.09
2022-09-22T13:00:54.486Z,31.30
2022-09-22T13:03:27.376Z,30.51
2022-09-22T13:05:56.789Z,30.00
2022-09-22T13:08:32.914Z,33.47
2022-09-22T13:11:05.615Z,31.10
2022-09-22T13:13:36.713Z,32.33
2022-09-22T13:16:15.503Z,29.46
2022-09-22T13:18:48.794Z,27.73
2022-09-22T13:21:16.164Z,27.44
2022-09-22T13:23:52.184Z,32.30
2022-09-22T13:26:31.084Z,33.80
2022-09-22T13:29:16.044Z,32.81
2022-09-22T13:31:50.968Z,31.46
2022-09-22T13:34:37.337Z,30.92
2022-09-22T13:37:08.714Z,33.86
2022-09-22T13:39:46.277Z,30.18
2022-09-22T13:42:35.242Z,30.72
2022-09-22T13:45:16.805Z,28.40
2022-09-22T13:47:45.682Z,30.17
2022-09-22T13:50:22.001Z,26.94
2022-09-22T13:52:51.524Z,27.51
2022-09-22T13:55:37.311Z,28.08
2022-09-22T13:58:09.014Z,31.55
2022-09-22T14:01:09.078Z,26.91
2022-09-22T14:03:38.159Z,25.75
2022-09-22T14:06:10.597Z,25.26
2022-09-22T14:08:37.887Z,24.79
2022-09-22T14:11:15.463Z,24.73
2022-09-22T14:14:01.644Z,24.95
2022-09-22T14:17:04.715Z,25.86
2022-09-22T14:19:41.082Z,25.52
2022-09-22T14:22:29.477Z,25.27
2022-09-22T14:25:00.044Z,25.04
2022-09-22T14:27:48.000Z,25.30
2022-09-22T14:30:18.646Z,24.40
2022-09-22T14:32:55.048Z,25.76
2022-09-22T14:35:38.614Z,25.92
2022-09-22T14:38:16.674Z,26.05
2022-09-22T14:40:54.042Z,25.20
2022-09-22T14:43:33.262Z,25.73
2022-09-22T14:46:07.377Z,24.90
2022-09-22T14:48:36.573Z,25.62
2022-09-22T14:51:20.412Z,25.00
2022-09-22T14:53:57.794Z,25.40
2022-09-22T14:56:28.273Z,25.03
2022-09-22T14:59:26.659Z,24.98
2022-09-22T15:02:14.442Z,24.42
2022-09-22T15:04:50.068Z,24.87
2022-09-22T15:07:29.242Z,24.16
2022-09-22T15:10:00.267Z,24.15
2022-09-22T15:12:46.163Z,23.76
2022-09-22T15:15:29.223Z,23.92
2022-09-22T15:18:13.293Z,24.23
2022-09-22T15:20:46.612Z,24.27
2022-09-22T15:23:16.665Z,24.55
2022-09-22T15:25:44.814Z,24.25
2022-09-22T15:28:15.461Z,23.74
2022-09-22T15:30:44.639Z,23.97
2022-09-22T15:33:13.542Z,24.08
2022-09-22T15:35:46.841Z,24.28
2022-09-22T15:38:24.071Z,24.66
2022-09-22T15:40:51.550Z,23.85
2022-09-22T15:43:22.982Z,23.02
2022-09-22T15:45:56.708Z,23.02
2022-09-22T15:48:35.056Z,23.61
2022-09-22T15:51:06.004Z,23.88
2022-09-22T15:53:34.715Z,23.18
2022-09-22T15:56:05.221Z,23.75
2022-09-22T15:58:37.431Z,24.31
2022-09-22T16:01:05.594Z,24.09
2022-09-22T16:03:40.796Z,23.88
2022-09-22T16:06:12.306Z,23.75
2022-09-22T16:08:43.755Z,23.61
2022-09-22T16:11:15.390Z,23.18
2022-09-22T16:13:42.846Z,23.46
2022-09-22T16:16:10.804Z,23.25
2022-09-22T16:18:39.527Z,23.10
2022-09-22T16:21:20.992Z,23.58
2022-09-22T16:23:48.076Z,23.78
2022-09-22T16:26:15.481Z,23.42
2022-09-22T16:28:42.462Z,22.86
2022-09-22T16:31:09.459Z,23.12
2022-09-22T16:33:36.497Z,22.64
2022-09-22T16:36:04.589Z,23.25
2022-09-22T16:38:33.771Z,23.81
2022-09-22T16:41:23.976Z,24.02
2022-09-22T16:43:51.810Z,24.49
2022-09-22T16:46:30.078Z,24.06
2022-09-22T16:49:00.769Z,24.02
2022-09-22T16:51:28.726Z,23.87
2022-09-22T16:53:57.860Z,24.00
2022-09-22T16:56:31.140Z,23.69
2022-09-22T16:59:01.263Z,24.23
2022-09-22T17:01:31.332Z,24.47
2022-09-22T17:03:58.877Z,24.43
2022-09-22T17:06:27.236Z,24.30
2022-09-22T17:08:58.565Z,24.34
2022-09-22T17:11:34.413Z,24.29
2022-09-22T17:14:08.875Z,23.47
2022-09-22T17:16:44.063Z,23.26
2022-09-22T17:19:18.371Z,23.00
2022-09-22T17:21:51.886Z,22.85
2022-09-22T17:24:19.445Z,22.68
2022-09-22T17:26:53.391Z,22.68
2022-09-22T17:29:29.740Z,22.64
2022-09-22T17:32:10.105Z,22.74
2022-09-22T17:34:38.732Z,22.18
2022-09-22T17:37:06.053Z,22.59
2022-09-22T17:39:33.812Z,22.52
2022-09-22T17:42:01.257Z,22.38
2022-09-22T17:44:28.710Z,22.32
2022-09-22T17:47:20.390Z,22.23
2022-09-22T17:50:06.302Z,22.38
2022-09-22T17:52:33.229Z,22.30
2022-09-22T17:55:14.168Z,22.49
2022-09-22T17:57:46.611Z,22.36
2022-09-22T18:00:21.460Z,22.66
2022-09-22T18:02:55.496Z,22.32
2022-09-22T18:05:26.626Z,22.45
2022-09-22T18:07:58.344Z,22.36
2022-09-22T18:10:32.029Z,22.27
2022-09-22T18:12:59.852Z,22.10
2022-09-22T18:15:29.067Z,22.25
2022-09-22T18:17:57.956Z,22.14
2022-09-22T18:20:26.149Z,22.31
2022-09-22T18:22:54.126Z,22.01
2022-09-22T18:25:25.411Z,21.69
2022-09-22T18:27:53.622Z,21.79
2022-09-22T18:30:20.822Z,21.65
2022-09-22T18:32:48.872Z,21.49
2022-09-22T18:35:16.350Z,21.64
2022-09-22T18:37:43.775Z,21.49
2022-09-22T18:40:12.325Z,21.40
2022-09-22T18:42:41.418Z,21.52
2022-09-22T18:45:14.202Z,21.32
2022-09-22T18:47:43.595Z,21.23
2022-09-22T18:50:12.284Z,21.29
2022-09-22T18:52:42.702Z,21.14
2022-09-22T18:55:11.868Z,21.57
2022-09-22T18:57:40.157Z,21.22
2022-09-22T19:00:08.832Z,20.90
2022-09-22T19:02:35.999Z,20.72
2022-09-22T19:05:03.159Z,20.64
2022-09-22T19:07:42.588Z,20.58
2022-09-22T19:10:22.354Z,20.67
2022-09-22T19:12:50.238Z,20.86
2022-09-22T19:15:19.093Z,20.72
2022-09-22T19:17:49.285Z,20.64
2022-09-22T19:20:21.910Z,20.65
2022-09-22T19:22:50.323Z,20.85
2022-09-22T19:25:18.748Z,20.91
2022-09-22T19:27:46.173Z,20.85
2022-09-22T19:30:13.591Z,21.09
2022-09-22T19:32:41.333Z,20.57
2022-09-22T19:35:09.188Z,20.54
2022-09-22T19:37:36.167Z,20.42
2022-09-22T19:40:08.485Z,20.48
2022-09-22T19:42:40.157Z,20.31
2022-09-22T19:45:08.406Z,20.14
2022-09-22T19:47:35.383Z,19.89
2022-09-22T19:50:02.357Z,19.71
2022-09-22T19:52:29.250Z,19.89
2022-09-22T19:54:56.241Z,20.35
2022-09-22T19:57:23.147Z,19.84
2022-09-22T19:59:50.836Z,19.49
2022-09-22T20:02:17.854Z,19.92
2022-09-22T20:04:45.761Z,20.26
2022-09-22T20:07:12.913Z,19.64
2022-09-22T20:09:39.881Z,19.98
2022-09-22T20:12:07.116Z,19.91
2022-09-22T20:14:34.476Z,19.94
2022-09-22T20:17:05.892Z,19.70
2022-09-22T20:19:42.110Z,19.65
2022-09-22T20:22:42.012Z,19.61
2022-09-22T20:25:28.694Z,19.78
2022-09-22T20:27:56.252Z,19.40
2022-09-22T20:30:23.290Z,19.24
2022-09-22T20:32:51.896Z,19.81
2022-09-22T20:35:21.690Z,19.42
2022-09-22T20:37:48.639Z,19.25
2022-09-22T20:40:20.139Z,19.50
2022-09-22T20:42:48.648Z,19.24
2022-09-22T20:45:15.718Z,19.23
2022-09-22T20:47:42.601Z,19.06
2022-09-22T20:50:11.872Z,19.26
2022-09-22T20:52:41.624Z,19.14
2022-09-22T20:55:10.640Z,19.06
2022-09-22T20:57:38.137Z,19.09
2022-09-22T21:00:06.937Z,19.04
2022-09-22T21:02:35.168Z,19.14
2022-09-22T21:05:02.156Z,19.30
2022-09-22T21:07:31.453Z,19.36
2022-09-22T21:10:16.913Z,19.08
2022-09-22T21:12:44.289Z,18.89
2022-09-22T21:15:11.857Z,18.84
2022-09-22T21:17:43.732Z,18.94
2022-09-22T21:20:10.970Z,19.02
2022-09-22T21:22:37.958Z,18.71
2022-09-22T21:25:05.416Z,18.90
2022-09-22T21:27:32.321Z,18.80
2022-09-22T21:29:59.280Z,18.85
2022-09-22T21:32:26.249Z,18.77
2022-09-22T21:34:53.160Z,18.93
2022-09-22T21:37:20.983Z,18.82
2022-09-22T21:39:47.957Z,19.10
2022-09-22T21:42:15.433Z,18.97
2022-09-22T21:44:42.335Z,18.75
2022-09-22T21:47:09.232Z,18.83
2022-09-22T21:49:36.176Z,18.67
2022-09-22T21:52:03.463Z,18.89
2022-09-22T21:54:31.297Z,18.75
2022-09-22T21:56:58.193Z,18.60
2022-09-22T21:59:25.076Z,18.86
2022-09-22T22:01:52.129Z,18.62
2022-09-22T22:04:19.243Z,18.72
2022-09-22T22:06:46.979Z,18.87
2022-09-22T22:09:20.239Z,18.84
2022-09-22T22:11:58.015Z,19.04
2022-09-22T22:14:32.648Z,19.12
2022-09-22T22:17:02.397Z,19.23
2022-09-22T22:19:29.928Z,19.23
2022-09-22T22:21:56.978Z,19.12
2022-09-22T22:24:28.938Z,19.34
2022-09-22T22:26:58.963Z,19.53
2022-09-22T22:29:28.123Z,19.39
2022-09-22T22:31:55.082Z,18.97
2022-09-22T22:34:27.150Z,19.14
2022-09-22T22:36:55.019Z,18.98
2022-09-22T22:39:22.340Z,18.80
2022-09-22T22:41:49.378Z,18.80
2022-09-22T22:44:17.851Z,19.02
2022-09-22T22:46:45.904Z,19.09
2022-09-22T22:49:12.949Z,19.15
2022-09-22T22:51:42.852Z,18.75
2022-09-22T22:54:11.249Z,18.87
2022-09-22T22:56:42.084Z,19.04
2022-09-22T22:59:09.630Z,18.88
2022-09-22T23:01:36.863Z,18.70
2022-09-22T23:04:07.349Z,19.02
2022-09-22T23:06:37.630Z,18.87
2022-09-22T23:09:08.326Z,18.97
2022-09-22T23:11:39.953Z,18.80
2022-09-22T23:14:11.305Z,18.75
2022-09-22T23:16:42.679Z,18.94
2022-09-22T23:19:13.688Z,18.73
2022-09-22T23:21:40.813Z,18.46
2022-09-22T23:24:08.363Z,18.54
2022-09-22T23:26:37.179Z,18.67
2022-09-22T23:29:05.068Z,18.67
2022-09-22T23:31:32.031Z,18.51
2022-09-22T23:33:59.225Z,18.39
2022-09-22T23:36:28.664Z,18.68
2022-09-22T23:39:04.606Z,18.65
2022-09-22T23:41:34.349Z,18.34
2022-09-22T23:44:02.766Z,18.23
2022-09-22T23:46:29.882Z,18.25
2022-09-22T23:48:56.907Z,18.38
2022-09-22T23:51:24.100Z,18.24
2022-09-22T23:53:51.747Z,18.31
2022-09-22T23:56:19.544Z,18.19
2022-09-22T23:58:46.901Z,18.07
